Time;durP1;ratioP1;P1;durP2;ratioP2;P2;SDS_P1;SDS_P2;PMS_P1;PMS_P2;Temp;Humidity;BMP_temperature;BMP_pressure;BME280_temperature;BME280_humidity;BME280_pressure;Samples;Min_cycle;Max_cycle;Signal;HPM_P1;HPM_P2
2023/09/07 00:02:06;;;;;;;1.98;1.98;;;;;;;20.08;72.02;97393.59;5003816;28;20062;-61
2023/09/07 00:04:33;;;;;;;1.90;1.90;;;;;;;20.33;71.88;97425.00;5003619;28;20061;-61
2023/09/07 00:07:00;;;;;;;2.10;2.10;;;;;;;20.50;71.59;97419.09;5003709;28;20049;-62
2023/09/07 00:09:27;;;;;;;2.17;2.17;;;;;;;20.47;71.23;97428.41;4985677;28;20234;-62
2023/09/07 00:11:54;;;;;;;1.90;1.90;;;;;;;20.57;71.58;97435.09;4985778;28;20068;-61
2023/09/07 00:14:20;;;;;;;1.90;1.90;;;;;;;20.49;72.19;97433.59;4985992;28;20053;-61
2023/09/07 00:16:47;;;;;;;2.25;2.25;;;;;;;20.46;71.82;97431.63;5003277;28;20533;-61
2023/09/07 00:19:14;;;;;;;2.20;2.20;;;;;;;20.38;72.43;97439.41;5002827;28;20524;-61
2023/09/07 00:21:41;;;;;;;2.05;2.05;;;;;;;20.51;71.57;97442.41;5003085;28;20061;-61
2023/09/07 00:24:08;;;;;;;1.98;1.98;;;;;;;20.17;71.53;97393.91;5003616;28;20045;-62
2023/09/07 00:26:34;;;;;;;2.10;2.10;;;;;;;20.39;71.87;97448.66;4985695;28;20503;-62
2023/09/07 00:29:01;;;;;;;2.00;2.00;;;;;;;20.29;72.73;97446.78;5004283;28;20100;-61
2023/09/07 00:31:28;;;;;;;2.00;2.00;;;;;;;20.22;72.58;97435.63;5004407;28;20356;-62
2023/09/07 00:33:54;;;;;;;2.13;2.13;;;;;;;20.11;73.00;97440.56;5004462;28;20050;-63
2023/09/07 00:36:21;;;;;;;2.00;2.00;;;;;;;20.14;72.70;97439.78;5004475;28;20458;-61
2023/09/07 00:38:48;;;;;;;1.83;1.83;;;;;;;20.07;73.29;97429.38;5004541;28;20480;-62
2023/09/07 00:41:14;;;;;;;1.90;1.90;;;;;;;20.08;72.96;97442.22;4986778;28;20169;-62
2023/09/07 00:43:41;;;;;;;1.80;1.80;;;;;;;19.64;73.61;97388.19;4987118;28;20054;-62
2023/09/07 00:46:08;;;;;;;2.10;2.10;;;;;;;20.03;73.32;97433.47;4987272;28;20064;-61
2023/09/07 00:48:35;;;;;;;2.20;2.20;;;;;;;19.93;73.66;97423.16;5003982;28;20081;-62
2023/09/07 00:51:02;;;;;;;1.80;1.80;;;;;;;20.12;72.89;97442.94;4986497;28;20148;-62
2023/09/07 00:53:29;;;;;;;2.00;2.00;;;;;;;19.93;72.97;97428.78;4986104;28;20082;-62
2023/09/07 00:55:57;;;;;;;2.00;2.00;;;;;;;19.99;73.49;97438.34;4985869;28;20524;-61
2023/09/07 00:58:24;;;;;;;2.20;2.20;;;;;;;19.98;73.18;97431.13;5003645;28;20049;-61
2023/09/07 01:00:51;;;;;;;2.22;2.22;;;;;;;19.70;72.95;97397.75;5003646;28;20195;-61
2023/09/07 01:03:18;;;;;;;2.10;2.10;;;;;;;19.63;72.99;97429.56;4985801;28;20058;-60
2023/09/07 01:05:45;;;;;;;2.00;2.00;;;;;;;19.80;73.84;97424.94;4985638;28;20050;-62
2023/09/07 01:08:19;;;;;;;1.95;1.95;;;;;;;19.76;73.81;97429.81;5004245;28;20572;-60
2023/09/07 01:10:46;;;;;;;2.15;2.15;;;;;;;19.71;74.07;97433.09;4986624;28;20135;-60
2023/09/07 01:13:13;;;;;;;1.85;1.85;;;;;;;19.61;74.34;97434.81;5004410;28;20076;-63
2023/09/07 01:15:39;;;;;;;1.80;1.80;;;;;;;19.61;74.72;97425.56;5004020;28;20046;-60
2023/09/07 01:18:08;;;;;;;2.00;2.00;;;;;;;19.47;74.69;97399.22;5003436;28;20046;-61
2023/09/07 01:20:51;;;;;;;;;;;;;;;19.57;74.86;97427.66;5003965;28;20058;-62
2023/09/07 01:23:18;;;;;;;1.90;1.90;;;;;;;19.33;75.77;97430.31;5003672;28;19929;-61
2023/09/07 01:25:45;;;;;;;1.88;1.88;;;;;;;19.29;76.18;97435.19;5004068;28;20054;-60
2023/09/07 01:28:12;;;;;;;2.00;2.00;;;;;;;19.15;77.03;97435.31;5004027;28;20052;-61
2023/09/07 01:30:40;;;;;;;2.03;2.03;;;;;;;19.13;77.67;97431.31;4985996;28;20325;-61
2023/09/07 01:33:08;;;;;;;1.75;1.75;;;;;;;19.05;77.61;97436.19;4985797;28;20057;-61
2023/09/07 01:35:36;;;;;;;1.80;1.80;;;;;;;18.98;77.34;97419.44;4984899;28;20100;-62
2023/09/07 01:38:03;;;;;;;1.65;1.65;;;;;;;18.99;78.58;97437.88;5002701;28;20056;-62
2023/09/07 01:40:30;;;;;;;1.80;1.80;;;;;;;18.66;78.29;97390.88;5003060;28;20317;-61
2023/09/07 01:42:56;;;;;;;1.95;1.95;;;;;;;18.89;78.74;97438.75;5003277;28;20592;-61
2023/09/07 01:45:23;;;;;;;2.00;2.00;;;;;;;18.94;78.37;97443.94;5003795;28;20153;-61
2023/09/07 01:47:51;;;;;;;2.03;2.03;;;;;;;18.69;79.13;97404.06;4986113;28;20050;-63
2023/09/07 01:50:18;;;;;;;1.77;1.77;;;;;;;18.80;79.13;97444.06;4985986;28;20061;-61
2023/09/07 01:52:48;;;;;;;1.88;1.88;;;;;;;18.83;79.19;97445.22;5004363;28;20221;-63
2023/09/07 01:55:15;;;;;;;1.88;1.88;;;;;;;18.68;80.25;97443.78;5003949;28;20046;-61
2023/09/07 01:57:42;;;;;;;1.65;1.65;;;;;;;18.69;79.99;97439.75;5004018;28;20076;-62
2023/09/07 02:00:09;;;;;;;1.65;1.65;;;;;;;18.56;80.70;97439.44;5003492;28;20054;-60
2023/09/07 02:02:35;;;;;;;1.90;1.90;;;;;;;18.56;80.89;97442.25;5002329;28;20046;-61
2023/09/07 02:05:02;;;;;;;1.80;1.80;;;;;;;18.57;80.52;97438.25;5003028;28;20479;-61
2023/09/07 02:07:29;;;;;;;1.80;1.80;;;;;;;18.49;81.06;97436.72;5003348;28;20129;-60
2023/09/07 02:09:56;;;;;;;1.80;1.80;;;;;;;18.50;81.24;97432.69;4984852;28;20050;-61
2023/09/07 02:12:22;;;;;;;1.75;1.75;;;;;;;18.53;80.86;97426.25;5002746;28;20064;-61
2023/09/07 02:14:49;;;;;;;1.67;1.67;;;;;;;16.31;81.55;97096.25;4985046;28;20133;-61
2023/09/07 02:17:17;;;;;;;2.00;2.00;;;;;;;18.21;82.11;97396.81;5001400;28;20133;-61
2023/09/07 02:19:44;;;;;;;1.80;1.80;;;;;;;18.41;82.61;97435.16;5001450;28;20050;-61
2023/09/07 02:22:12;;;;;;;1.80;1.80;;;;;;;18.40;81.92;97441.97;5001331;28;20080;-61
2023/09/07 02:24:38;;;;;;;1.67;1.67;;;;;;;18.19;83.20;97430.06;5001993;28;20051;-61
2023/09/07 02:27:05;;;;;;;1.75;1.75;;;;;;;17.98;83.14;97411.38;5001681;28;20443;-61
2023/09/07 02:29:31;;;;;;;1.67;1.67;;;;;;;18.23;82.93;97451.28;4984267;28;20207;-62
2023/09/07 02:31:58;;;;;;;1.70;1.70;;;;;;;18.11;82.95;97454.56;5002167;28;20496;-61
2023/09/07 02:34:25;;;;;;;1.58;1.58;;;;;;;18.21;83.15;97453.69;4984279;28;20054;-62
2023/09/07 02:36:51;;;;;;;1.80;1.80;;;;;;;18.00;84.25;97453.84;5001943;28;20064;-64
2023/09/07 02:39:18;;;;;;;2.00;2.00;;;;;;;18.01;84.58;97449.81;5002326;28;20064;-62
2023/09/07 02:41:46;;;;;;;1.75;1.75;;;;;;;18.07;84.66;97448.97;5002367;28;20148;-62
2023/09/07 02:44:13;;;;;;;1.83;1.83;;;;;;;17.95;84.96;97445.84;5002642;28;20058;-63
2023/09/07 02:46:39;;;;;;;1.70;1.70;;;;;;;17.81;84.47;97424.28;4984919;28;20064;-60
2023/09/07 02:49:06;;;;;;;1.60;1.60;;;;;;;17.99;84.68;97450.22;4984822;28;20548;-60
2023/09/07 02:51:33;;;;;;;1.63;1.63;;;;;;;17.99;85.31;97452.22;5002295;28;20046;-62
2023/09/07 02:54:02;;;;;;;1.70;1.70;;;;;;;17.98;84.89;97456.22;5002787;28;20103;-60
2023/09/07 02:56:29;;;;;;;1.70;1.70;;;;;;;17.90;84.87;97451.88;5002615;28;20060;-61
2023/09/07 02:58:56;;;;;;;1.80;1.80;;;;;;;17.69;85.64;97438.75;4984817;28;20042;-61
2023/09/07 03:01:23;;;;;;;1.65;1.65;;;;;;;17.51;85.67;97398.03;5002342;28;20500;-62
2023/09/07 03:03:50;;;;;;;1.73;1.73;;;;;;;17.65;86.86;97454.00;5002143;28;20061;-63
2023/09/07 03:06:17;;;;;;;1.63;1.63;;;;;;;17.74;86.68;97445.94;5002507;28;20547;-61
2023/09/07 03:08:44;;;;;;;1.75;1.75;;;;;;;17.39;86.93;97401.22;4984626;28;20146;-61
2023/09/07 03:11:11;;;;;;;1.50;1.50;;;;;;;17.54;87.20;97448.44;5001775;28;20062;-61
2023/09/07 03:13:38;;;;;;;1.70;1.70;;;;;;;17.52;87.79;97452.84;4966028;28;20050;-61
2023/09/07 03:16:05;;;;;;;1.80;1.80;;;;;;;17.56;87.72;97448.03;4986684;28;20104;-61
2023/09/07 03:18:32;;;;;;;1.52;1.52;;;;;;;17.51;87.03;97431.63;4986714;28;20371;-61
2023/09/07 03:21:01;;;;;;;1.42;1.42;;;;;;;17.51;87.90;97454.06;5026275;28;20057;-61
2023/09/07 03:23:29;;;;;;;1.80;1.80;;;;;;;17.56;87.08;97456.44;5026198;28;20156;-61
2023/09/07 03:25:55;;;;;;;1.52;1.52;;;;;;;17.07;86.85;97394.97;4997998;28;20132;-61
2023/09/07 03:28:22;;;;;;;1.65;1.65;;;;;;;17.47;87.73;97453.25;5024850;28;20045;-61
2023/09/07 03:30:49;;;;;;;1.70;1.70;;;;;;;17.41;87.90;97488.44;5025935;28;20144;-62
2023/09/07 03:33:15;;;;;;;1.60;1.60;;;;;;;17.39;87.61;97457.25;5025633;28;20053;-61
2023/09/07 03:35:42;;;;;;;1.70;1.70;;;;;;;16.59;88.64;97353.50;5007623;28;20049;-61
2023/09/07 03:38:09;;;;;;;1.77;1.77;;;;;;;17.22;87.91;97435.69;5007689;28;20050;-62
2023/09/07 03:40:35;;;;;;;1.52;1.52;;;;;;;16.88;88.68;97409.38;5025280;28;20053;-61
2023/09/07 03:43:02;;;;;;;1.55;1.55;;;;;;;17.13;88.95;97488.53;5039711;28;20059;-62
2023/09/07 03:45:30;;;;;;;1.48;1.48;;;;;;;16.73;89.54;97410.59;5045332;28;20057;-61
2023/09/07 03:47:57;;;;;;;1.55;1.55;;;;;;;16.95;90.19;97445.75;5044974;28;20049;-63
2023/09/07 03:50:23;;;;;;;1.50;1.50;;;;;;;17.05;90.55;97458.94;5027623;28;20502;-60
2023/09/07 03:52:50;;;;;;;1.40;1.40;;;;;;;16.55;90.74;97397.44;5026924;28;20067;-60
2023/09/07 03:55:17;;;;;;;1.60;1.60;;;;;;;17.04;90.30;97465.75;5044498;28;20044;-61
2023/09/07 03:57:46;;;;;;;1.45;1.45;;;;;;;17.06;90.27;97471.72;5044170;28;20136;-60
2023/09/07 04:00:14;;;;;;;1.58;1.58;;;;;;;17.08;90.87;97472.13;5044356;28;20055;-62
2023/09/07 04:02:41;;;;;;;1.50;1.50;;;;;;;16.97;91.29;97477.75;5026653;28;20404;-63
2023/09/07 04:05:10;;;;;;;1.52;1.52;;;;;;;16.97;90.85;97457.34;5026847;28;20048;-61
2023/09/07 04:07:38;;;;;;;1.60;1.60;;;;;;;16.56;91.29;97396.25;5026843;28;20147;-63
2023/09/07 04:10:05;;;;;;;1.60;1.60;;;;;;;17.07;91.22;97467.75;5044326;28;20049;-62
2023/09/07 04:12:33;;;;;;;1.50;1.50;;;;;;;16.79;90.20;97412.59;5043887;28;20156;-62
2023/09/07 04:15:03;;;;;;;1.50;1.50;;;;;;;17.27;87.89;97477.28;5044087;28;20106;-63
2023/09/07 04:17:32;;;;;;;1.63;1.63;;;;;;;17.20;88.41;97477.31;5043972;28;20083;-61
2023/09/07 04:19:59;;;;;;;1.70;1.70;;;;;;;17.25;88.38;97479.69;5043667;28;20108;-64
2023/09/07 04:22:26;;;;;;;1.70;1.70;;;;;;;17.31;88.21;97486.50;5025752;28;20575;-61
2023/09/07 04:24:52;;;;;;;1.52;1.52;;;;;;;17.19;89.84;97475.69;5025132;28;20057;-61
2023/09/07 04:27:19;;;;;;;1.60;1.60;;;;;;;15.08;89.02;97118.81;5043133;28;20045;-62
2023/09/07 04:29:46;;;;;;;1.58;1.58;;;;;;;17.26;88.86;97464.50;5043261;28;20100;-61
2023/09/07 04:32:12;;;;;;;1.52;1.52;;;;;;;17.16;89.06;97456.91;5024912;28;20057;-61
2023/09/07 04:34:39;;;;;;;1.48;1.48;;;;;;;17.24;88.38;97453.72;5042826;28;20439;-62
2023/09/07 04:37:06;;;;;;;1.70;1.70;;;;;;;17.27;89.97;97475.28;5025062;28;20052;-62
2023/09/07 04:39:32;;;;;;;1.60;1.60;;;;;;;17.40;88.31;97475.66;5042759;28;20053;-62
2023/09/07 04:41:59;;;;;;;1.52;1.52;;;;;;;17.49;87.78;97478.84;5036821;28;20047;-62
2023/09/07 04:44:27;;;;;;;1.80;1.80;;;;;;;17.54;86.97;97476.47;5022803;28;20057;-61
2023/09/07 04:46:57;;;;;;;1.60;1.60;;;;;;;17.75;85.92;97481.97;5005316;28;20050;-60
2023/09/07 04:49:24;;;;;;;1.70;1.70;;;;;;;17.83;86.24;97494.75;5005125;28;20132;-61
2023/09/07 04:51:53;;;;;;;1.60;1.60;;;;;;;17.85;86.35;97491.53;5022774;28;20053;-61
2023/09/07 04:54:20;;;;;;;1.90;1.90;;;;;;;17.81;85.99;97476.75;5029791;28;20060;-61
2023/09/07 04:56:47;;;;;;;1.73;1.73;;;;;;;18.01;85.72;97483.44;5042682;28;20056;-60
2023/09/07 04:59:14;;;;;;;1.92;1.92;;;;;;;18.23;84.96;97486.94;5042753;28;20045;-62
2023/09/07 05:01:41;;;;;;;1.80;1.80;;;;;;;18.39;83.30;97488.06;5042443;28;20048;-60
2023/09/07 05:04:08;;;;;;;1.60;1.60;;;;;;;18.16;83.12;97458.94;5023944;28;20053;-60
2023/09/07 05:06:37;;;;;;;2.00;2.00;;;;;;;18.56;81.94;97501.19;5041467;28;20049;-61
2023/09/07 05:09:04;;;;;;;1.80;1.80;;;;;;;18.64;81.62;97491.50;5024304;28;20510;-61
2023/09/07 05:11:31;;;;;;;1.92;1.92;;;;;;;18.86;81.00;97489.31;5024478;28;20060;-61
2023/09/07 05:13:57;;;;;;;1.83;1.83;;;;;;;18.94;80.21;97491.66;5042892;28;20136;-61
2023/09/07 05:16:24;;;;;;;1.70;1.70;;;;;;;18.53;80.09;97403.00;5043067;28;20056;-60
2023/09/07 05:18:51;;;;;;;1.80;1.80;;;;;;;19.28;78.47;97495.38;5025145;28;20088;-61
2023/09/07 05:21:17;;;;;;;1.88;1.88;;;;;;;19.49;78.81;97500.78;5025016;28;20623;-60
2023/09/07 05:23:44;;;;;;;2.00;2.00;;;;;;;19.58;77.04;97501.06;5043339;28;20048;-61
2023/09/07 05:26:11;;;;;;;2.08;2.08;;;;;;;19.71;76.71;97503.38;5025517;28;20077;-61
2023/09/07 05:28:41;;;;;;;2.17;2.17;;;;;;;19.54;76.86;97448.94;5025456;28;20489;-61
2023/09/07 05:31:08;;;;;;;2.13;2.13;;;;;;;19.98;75.50;97485.34;5043541;28;20155;-60
2023/09/07 05:33:34;;;;;;;1.90;1.90;;;;;;;18.70;74.91;97270.94;5044090;28;20174;-61
2023/09/07 05:36:01;;;;;;;2.20;2.20;;;;;;;20.40;73.48;97506.53;5025688;28;20045;-61
2023/09/07 05:38:28;;;;;;;1.90;1.90;;;;;;;20.48;73.50;97511.63;5042503;28;20048;-61
2023/09/07 05:40:59;;;;;;;2.00;2.00;;;;;;;20.69;72.44;97507.72;5041513;28;20064;-63
2023/09/07 05:43:25;;;;;;;1.80;1.80;;;;;;;20.86;72.43;97503.81;5025146;28;20063;-62
2023/09/07 05:45:52;;;;;;;2.00;2.00;;;;;;;20.81;71.57;97467.69;5025214;28;20068;-62
2023/09/07 05:48:19;;;;;;;2.25;2.25;;;;;;;19.42;70.14;97222.69;5038844;28;20132;-72
2023/09/07 05:50:46;;;;;;;2.17;2.17;;;;;;;21.44;69.54;97506.03;5041909;28;20049;-71
2023/09/07 05:53:13;;;;;;;2.30;2.30;;;;;;;21.51;69.07;97510.75;5022221;28;20045;-68
2023/09/07 05:55:39;;;;;;;2.17;2.17;;;;;;;19.59;68.82;97156.19;5024683;28;20295;-65
2023/09/07 05:58:08;;;;;;;2.50;2.40;;;;;;;21.94;67.31;97498.25;5042074;28;20098;-63
2023/09/07 06:00:35;;;;;;;2.30;2.30;;;;;;;22.06;65.88;97496.81;5041730;28;20054;-67
2023/09/07 06:03:03;;;;;;;2.22;2.22;;;;;;;22.03;65.69;97501.31;5040442;28;20141;-65
2023/09/07 06:05:30;;;;;;;2.15;2.15;;;;;;;22.14;65.30;97493.41;5040706;28;20049;-60
2023/09/07 06:07:57;;;;;;;2.20;2.20;;;;;;;22.30;65.13;97496.25;5037422;28;20049;-59
2023/09/07 06:10:23;;;;;;;2.47;2.38;;;;;;;22.43;64.63;97493.56;5022925;28;20595;-60
2023/09/07 06:12:50;;;;;;;2.13;2.13;;;;;;;22.62;64.04;97500.44;5022342;28;20079;-60
2023/09/07 06:15:17;;;;;;;2.33;2.28;;;;;;;22.86;62.94;97501.91;5039558;28;20045;-63
2023/09/07 06:17:45;;;;;;;2.45;2.35;;;;;;;22.78;62.73;97492.00;5036024;28;20730;-59
2023/09/07 06:20:12;;;;;;;2.67;2.58;;;;;;;22.97;62.71;97499.59;5018445;28;20060;-61
2023/09/07 06:22:39;;;;;;;2.60;2.50;;;;;;;23.17;60.79;97491.81;5035072;28;20503;-64
2023/09/07 06:25:06;;;;;;;2.70;2.60;;;;;;;23.09;60.01;97439.53;5024152;28;20072;-61
2023/09/07 06:27:33;;;;;;;2.55;2.45;;;;;;;23.53;58.68;97492.53;5021111;28;20132;-61
2023/09/07 06:30:00;;;;;;;2.63;2.53;;;;;;;22.96;57.52;97379.31;5040453;28;20119;-64
2023/09/07 06:32:27;;;;;;;2.65;2.55;;;;;;;23.60;57.13;97493.13;5023687;28;20052;-61
2023/09/07 06:34:53;;;;;;;2.92;2.83;;;;;;;23.64;56.38;97476.84;5041593;28;20090;-60
2023/09/07 06:37:20;;;;;;;2.85;2.75;;;;;;;22.26;56.22;97218.13;5039217;28;20583;-58
2023/09/07 06:39:47;;;;;;;2.80;2.70;;;;;;;22.79;54.12;97267.56;5022659;28;20107;-59
2023/09/07 06:42:15;;;;;;;3.47;3.38;;;;;;;23.92;53.80;97418.63;5039319;28;20561;-61
2023/09/07 06:44:42;;;;;;;2.83;2.72;;;;;;;24.33;52.32;97492.25;5023310;28;20063;-61
2023/09/07 06:47:09;;;;;;;3.00;2.90;;;;;;;24.27;54.50;97494.06;5040456;28;20053;-60
2023/09/07 06:49:38;;;;;;;2.88;2.78;;;;;;;23.66;52.27;97408.50;5040357;28;20045;-66
2023/09/07 06:52:05;;;;;;;3.03;2.92;;;;;;;24.08;53.22;97489.38;5040496;28;20504;-58
2023/09/07 06:54:32;;;;;;;3.00;2.90;;;;;;;24.22;51.23;97482.47;5039209;28;20052;-61
2023/09/07 06:56:58;;;;;;;3.00;2.90;;;;;;;23.84;53.51;97491.63;5026353;28;20053;-56
2023/09/07 06:59:26;;;;;;;2.75;2.65;;;;;;;24.38;52.74;97497.38;5012138;28;20060;-59
2023/09/07 07:01:53;;;;;;;2.90;2.80;;;;;;;24.58;51.57;97495.13;5024815;28;20052;-60
2023/09/07 07:04:20;;;;;;;3.08;2.97;;;;;;;24.36;51.26;97440.38;5004662;28;20061;-61
2023/09/07 07:06:47;;;;;;;3.03;2.92;;;;;;;24.27;51.27;97416.81;5021376;28;20049;-58
2023/09/07 07:09:13;;;;;;;3.15;3.05;;;;;;;25.10;49.57;97492.66;5026997;28;20132;-59
2023/09/07 07:11:41;;;;;;;3.20;3.10;;;;;;;25.11;48.34;97485.75;5029929;28;20678;-57
2023/09/07 07:14:08;;;;;;;3.38;3.28;;;;;;;23.68;47.13;97250.41;5014259;28;20045;-61
2023/09/07 07:16:35;;;;;;;3.50;3.40;;;;;;;25.51;46.23;97488.06;5022102;28;20056;-61
2023/09/07 07:19:02;;;;;;;3.33;3.22;;;;;;;25.25;45.97;97487.31;5024764;28;20355;-59
2023/09/07 07:21:28;;;;;;;3.08;2.97;;;;;;;25.18;45.00;97473.38;5021695;28;20065;-59
2023/09/07 07:23:55;;;;;;;3.35;3.25;;;;;;;24.95;45.68;97417.84;5025336;28;20053;-61
2023/09/07 07:26:22;;;;;;;3.78;3.67;;;;;;;25.55;45.61;97478.19;5033022;28;20607;-62
2023/09/07 07:28:48;;;;;;;3.17;3.08;;;;;;;25.78;45.90;97479.81;5027149;28;20910;-65
2023/09/07 07:31:15;;;;;;;3.20;3.10;;;;;;;25.69;44.90;97479.75;5029651;28;20041;-62
2023/09/07 07:33:42;;;;;;;3.40;3.30;;;;;;;25.95;44.66;97484.03;5036981;28;20060;-63
2023/09/07 07:36:08;;;;;;;3.40;3.30;;;;;;;25.82;43.85;97420.84;5036702;28;20896;-57
2023/09/07 07:38:35;;;;;;;3.60;3.50;;;;;;;26.16;42.58;97461.34;5035589;28;20053;-63
2023/09/07 07:41:02;;;;;;;3.53;3.42;;;;;;;25.63;42.09;97396.41;5020930;28;20088;-64
2023/09/07 07:43:29;;;;;;;3.60;3.50;;;;;;;25.98;43.98;97477.44;5040364;28;20068;-60
2023/09/07 07:45:56;;;;;;;3.60;3.50;;;;;;;26.26;42.58;97522.66;5039869;28;20057;-60
2023/09/07 07:48:23;;;;;;;3.47;3.38;;;;;;;26.43;41.34;97494.84;5021395;28;20076;-60
2023/09/07 07:50:49;;;;;;;3.55;3.45;;;;;;;26.38;41.28;97461.34;5031630;28;20056;-61
2023/09/07 07:53:16;;;;;;;3.67;3.58;;;;;;;26.14;41.31;97434.66;5036494;28;20147;-63
2023/09/07 07:55:43;;;;;;;3.78;3.67;;;;;;;26.80;41.28;97471.03;5035589;28;20795;-60
2023/09/07 07:58:10;;;;;;;3.60;3.50;;;;;;;25.90;41.70;97487.47;5027265;28;20154;-61
2023/09/07 08:00:38;;;;;;;3.58;3.47;;;;;;;26.36;41.74;97475.22;5021054;28;20071;-61
2023/09/07 08:03:06;;;;;;;3.55;3.45;;;;;;;26.54;41.17;97475.31;5041511;28;20076;-63
2023/09/07 08:05:34;;;;;;;3.53;3.42;;;;;;;26.44;40.74;97448.91;5043443;28;20552;-62
2023/09/07 08:08:01;;;;;;;3.88;3.78;;;;;;;26.69;40.74;97456.47;4996980;28;20155;-59
2023/09/07 08:10:28;;;;;;;3.90;3.80;;;;;;;26.38;41.57;97393.91;5011831;28;20454;-60
2023/09/07 08:12:58;;;;;;;4.03;3.92;;;;;;;25.65;41.99;97456.34;5019391;28;20114;-59
2023/09/07 08:15:25;;;;;;;3.33;3.22;;;;;;;26.03;41.51;97479.72;5002271;28;20406;-60
2023/09/07 08:17:52;;;;;;;3.42;3.33;;;;;;;24.65;41.88;97214.41;5018221;28;20057;-60
2023/09/07 08:20:19;;;;;;;3.50;3.40;;;;;;;26.68;41.36;97469.09;4988678;28;20057;-61
2023/09/07 08:22:46;;;;;;;3.70;3.60;;;;;;;26.55;41.54;97432.22;5021385;28;20919;-60
2023/09/07 08:25:14;;;;;;;4.10;4.00;;;;;;;26.44;41.37;97468.81;5004490;28;20049;-60
2023/09/07 08:27:45;;;;;;;3.10;3.00;;;;;;;26.32;41.34;97461.13;5017904;28;20140;-60
2023/09/07 08:30:17;;;;;;;3.92;3.83;;;;;;;26.58;41.21;97428.44;5020298;28;20067;-61
2023/09/07 08:32:45;;;;;;;3.70;3.60;;;;;;;26.96;40.65;97461.47;5020165;28;20049;-60
2023/09/07 08:35:13;;;;;;;4.00;3.90;;;;;;;24.60;41.01;97135.66;5015060;28;20616;-60
2023/09/07 08:37:41;;;;;;;3.70;3.60;;;;;;;26.42;41.17;97474.16;5006925;28;20053;-62
2023/09/07 08:40:08;;;;;;;3.60;3.50;;;;;;;26.67;40.73;97427.72;5004139;28;20323;-62
2023/09/07 08:42:39;;;;;;;3.70;3.60;;;;;;;26.28;41.25;97434.13;5021641;28;20053;-61
2023/09/07 08:45:08;;;;;;;3.75;3.65;;;;;;;27.06;41.58;97466.72;5021892;28;20061;-60
2023/09/07 08:47:37;;;;;;;3.75;3.65;;;;;;;27.27;40.93;97465.84;4999903;28;20400;-60
2023/09/07 08:50:08;;;;;;;3.85;3.75;;;;;;;27.31;40.24;97460.81;5040096;28;20541;-61
2023/09/07 08:52:36;;;;;;;3.97;3.88;;;;;;;27.48;40.29;97456.41;5058539;28;20529;-61
2023/09/07 08:55:04;;;;;;;4.07;3.97;;;;;;;26.95;41.41;97395.28;5062543;28;20114;-64
2023/09/07 08:57:32;;;;;;;3.50;3.40;;;;;;;26.45;42.51;97458.22;5062127;28;20495;-58
2023/09/07 08:59:59;;;;;;;3.67;3.58;;;;;;;26.68;41.43;97409.41;5056238;28;20446;-59
2023/09/07 09:02:26;;;;;;;3.85;3.75;;;;;;;26.94;40.75;97418.47;5061939;28;20056;-60
2023/09/07 09:04:53;;;;;;;3.95;3.85;;;;;;;26.65;41.89;97435.94;5042013;28;20435;-61
2023/09/07 09:07:21;;;;;;;3.90;3.80;;;;;;;27.02;41.02;97419.75;5050964;28;20657;-64
2023/09/07 09:09:49;;;;;;;4.30;4.20;;;;;;;27.02;40.53;97352.31;5063981;28;20569;-61
2023/09/07 09:12:17;;;;;;;3.88;3.78;;;;;;;26.96;40.86;97445.19;5034599;28;20150;-62
2023/09/07 09:14:44;;;;;;;4.00;3.90;;;;;;;27.30;42.40;97447.84;5057711;28;20044;-61
2023/09/07 09:17:13;;;;;;;3.92;3.83;;;;;;;27.17;40.75;97455.69;5058946;28;20159;-60
2023/09/07 09:19:44;;;;;;;3.95;3.85;;;;;;;27.57;40.03;97433.63;5041136;28;20051;-59
2023/09/07 09:22:11;;;;;;;3.90;3.80;;;;;;;27.32;40.54;97411.16;5060014;28;20530;-59
2023/09/07 09:24:38;;;;;;;3.80;3.70;;;;;;;27.91;40.64;97439.06;5028888;28;20482;-61
2023/09/07 09:27:05;;;;;;;3.90;3.80;;;;;;;26.91;40.64;97332.06;5060588;28;20072;-60
2023/09/07 09:29:35;;;;;;;3.92;3.83;;;;;;;27.56;40.00;97423.53;5042378;28;20056;-59
2023/09/07 09:32:07;;;;;;;4.07;3.97;;;;;;;27.59;40.59;97425.44;5041527;28;20073;-60
2023/09/07 09:34:35;;;;;;;4.15;4.05;;;;;;;27.05;41.68;97419.63;5041516;28;20124;-60
2023/09/07 09:37:06;;;;;;;3.95;3.85;;;;;;;27.29;41.15;97429.19;5042189;28;20056;-59
2023/09/07 09:39:34;;;;;;;4.00;3.90;;;;;;;27.25;41.10;97422.81;5042917;28;20053;-59
2023/09/07 09:42:02;;;;;;;3.45;3.35;;;;;;;27.21;41.32;97416.50;5042609;28;20073;-60
2023/09/07 09:44:29;;;;;;;3.90;3.80;;;;;;;27.14;41.24;97416.78;5062096;28;20478;-59
2023/09/07 09:46:57;;;;;;;3.33;3.22;;;;;;;26.68;42.02;97370.38;5062901;28;20397;-59
2023/09/07 09:49:26;;;;;;;3.60;3.50;;;;;;;26.70;42.47;97396.31;5062593;28;20044;-59
2023/09/07 09:51:53;;;;;;;3.75;3.65;;;;;;;26.42;42.02;97365.38;5044835;28;20143;-58
2023/09/07 09:54:22;;;;;;;3.47;3.38;;;;;;;26.70;42.63;97404.03;5062892;28;20060;-59
2023/09/07 09:56:49;;;;;;;3.10;3.00;;;;;;;26.31;42.68;97360.13;5044767;28;20051;-59
2023/09/07 09:59:15;;;;;;;3.53;3.42;;;;;;;26.73;42.34;97408.00;5062566;28;20088;-58
2023/09/07 10:01:50;;;;;;;3.10;3.00;;;;;;;26.36;42.73;97407.03;5045276;28;20060;-60
2023/09/07 10:04:18;;;;;;;3.42;3.33;;;;;;;26.89;42.07;97411.34;5045021;28;20061;-61
2023/09/07 10:06:56;;;;;;;3.60;3.50;;;;;;;27.36;42.16;97406.09;5062713;28;20048;-58
2023/09/07 10:09:23;;;;;;;3.72;3.63;;;;;;;27.09;41.41;97373.97;5062184;28;20709;-59
2023/09/07 10:11:54;;;;;;;3.80;3.70;;;;;;;27.15;42.48;97409.84;5061401;28;20080;-59
2023/09/07 10:14:21;;;;;;;3.10;3.00;;;;;;;26.90;43.11;97380.88;5061188;28;20053;-60
2023/09/07 10:16:51;;;;;;;4.00;3.90;;;;;;;27.71;42.77;97393.16;5061929;28;20059;-58
2023/09/07 10:19:23;;;;;;;4.10;4.00;;;;;;;27.64;41.36;97353.63;5062042;28;20053;-59
2023/09/07 10:21:52;;;;;;;3.78;3.67;;;;;;;27.18;42.56;97366.22;5061924;28;20044;-59
2023/09/07 10:24:26;;;;;;;3.97;3.88;;;;;;;27.54;42.63;97400.44;5058931;28;20145;-58
2023/09/07 10:27:02;;;;;;;4.18;4.07;;;;;;;27.74;42.19;97392.19;5059496;28;20354;-61
2023/09/07 10:29:29;;;;;;;3.83;3.72;;;;;;;27.70;42.60;97394.41;5042262;28;20052;-59
2023/09/07 10:31:56;;;;;;;4.32;4.22;;;;;;;28.17;41.48;97349.09;5060348;28;20153;-61
2023/09/07 10:34:35;;;;;;;4.03;3.92;;;;;;;28.91;40.39;97393.16;5060171;28;20060;-58
2023/09/07 10:37:03;;;;;;;3.88;3.78;;;;;;;28.70;39.93;97320.88;5040226;28;20211;-58
2023/09/07 10:39:33;;;;;;;4.20;4.10;;;;;;;28.78;40.25;97392.59;5059570;28;20102;-59
2023/09/07 10:42:00;;;;;;;3.97;3.88;;;;;;;27.94;40.84;97327.03;5059925;28;20055;-58
2023/09/07 10:44:27;;;;;;;4.20;4.10;;;;;;;28.05;40.89;97367.19;5058616;28;20051;-58
2023/09/07 10:46:56;;;;;;;4.07;3.97;;;;;;;26.70;41.96;97159.56;5054676;28;20451;-60
2023/09/07 10:49:24;;;;;;;4.05;3.95;;;;;;;28.53;41.09;97390.19;5040039;28;20793;-61
2023/09/07 10:51:51;;;;;;;4.32;4.22;;;;;;;28.89;40.84;97361.47;5056328;28;20819;-61
2023/09/07 10:54:22;;;;;;;4.32;4.22;;;;;;;29.26;39.82;97374.28;5057481;28;20052;-59
2023/09/07 10:56:50;;;;;;;4.60;4.50;;;;;;;28.88;39.60;97377.03;5056006;28;20063;-64
2023/09/07 10:59:17;;;;;;;4.43;4.32;;;;;;;29.04;40.28;97380.25;5038764;28;20048;-60
2023/09/07 11:18:51;;;;;;;2.00;2.00;;;;;;;28.32;37.99;97120.41;5154354;27;20433;-61
2023/09/07 11:21:19;;;;;;;1.92;1.92;;;;;;;29.28;38.91;97346.00;5147571;27;20061;-61
2023/09/07 11:23:46;;;;;;;1.77;1.77;;;;;;;28.42;40.90;97389.88;5155978;27;20153;-61
2023/09/07 11:26:13;;;;;;;1.70;1.70;;;;;;;28.45;40.18;97327.00;5142423;27;20153;-62
2023/09/07 11:28:40;;;;;;;1.75;1.75;;;;;;;28.76;40.17;97369.47;5142692;27;20053;-61
2023/09/07 11:31:08;;;;;;;1.80;1.80;;;;;;;28.05;39.19;97190.56;5130462;27;20175;-68
2023/09/07 11:33:35;;;;;;;1.75;1.75;;;;;;;29.18;39.21;97315.97;5146290;27;20046;-59
2023/09/07 11:36:03;;;;;;;1.83;1.83;;;;;;;29.89;38.82;97370.91;5160573;27;20057;-62
2023/09/07 11:38:36;;;;;;;1.77;1.77;;;;;;;29.46;39.90;97363.00;5158673;27;20619;-60
2023/09/07 11:41:03;;;;;;;1.90;1.90;;;;;;;29.56;38.99;97327.38;5141541;27;20055;-59
2023/09/07 11:43:30;;;;;;;1.77;1.77;;;;;;;29.13;39.76;97336.63;5119785;27;20047;-67
2023/09/07 11:45:57;;;;;;;1.75;1.75;;;;;;;29.07;39.91;97312.91;5126823;27;20870;-61
2023/09/07 11:48:24;;;;;;;2.03;2.03;;;;;;;28.96;40.13;97358.28;5110480;27;20319;-62
2023/09/07 11:50:50;;;;;;;1.70;1.70;;;;;;;28.63;40.75;97354.66;5108620;27;20104;-60
2023/09/07 11:53:17;;;;;;;1.60;1.60;;;;;;;26.54;40.92;97122.94;5122735;27;20087;-60